createdAt,value
2023-05-06T00:02:15.242Z,99945.44
2023-05-06T00:07:17.205Z,99945.53
2023-05-06T00:12:18.986Z,99946.50
2023-05-06T00:17:20.778Z,99950.34
2023-05-06T00:22:22.548Z,99950.22
2023-05-06T00:27:24.354Z,99936.91
2023-05-06T00:32:26.151Z,99942.69
2023-05-06T00:37:27.997Z,99942.31
2023-05-06T00:42:32.807Z,99938.72
2023-05-06T00:47:34.748Z,99932.25
2023-05-06T00:52:36.734Z,99936.28
2023-05-06T00:57:40.457Z,99934.00
2023-05-06T01:02:47.494Z,99930.31
2023-05-06T01:08:23.038Z,99923.16
2023-05-06T01:13:35.672Z,99917.41
2023-05-06T01:18:38.714Z,99922.38
2023-05-06T01:23:58.385Z,99919.53
2023-05-06T01:29:02.434Z,99928.19
2023-05-06T01:34:18.280Z,99929.38
2023-05-06T01:39:29.124Z,99926.13
2023-05-06T01:44:33.951Z,99927.44
2023-05-06T01:49:37.043Z,99919.88
2023-05-06T01:54:38.941Z,99923.72
2023-05-06T01:59:40.786Z,99930.25
2023-05-06T02:04:42.559Z,99941.91
2023-05-06T02:09:44.594Z,99940.59
2023-05-06T02:14:46.619Z,99951.94
2023-05-06T02:19:48.473Z,99947.53
2023-05-06T02:24:50.298Z,99946.91
2023-05-06T02:29:52.078Z,99943.75
2023-05-06T02:34:53.764Z,99953.81
2023-05-06T02:39:57.263Z,99953.81
2023-05-06T02:44:59.036Z,99955.06
2023-05-06T02:50:00.881Z,99965.22
2023-05-06T02:55:02.912Z,99962.16
2023-05-06T03:00:06.431Z,99961.53
2023-05-06T03:05:08.884Z,99965.00
2023-05-06T03:10:11.377Z,99963.53
2023-05-06T03:15:13.601Z,99965.19
2023-05-06T03:20:15.647Z,99970.81
2023-05-06T03:25:24.356Z,99970.34
2023-05-06T03:30:27.313Z,99966.50
2023-05-06T03:35:32.322Z,99969.13
2023-05-06T03:40:36.096Z,99969.06
2023-05-06T03:45:38.425Z,99963.06
2023-05-06T03:50:40.958Z,99966.81
2023-05-06T03:55:42.954Z,99969.91
2023-05-06T04:00:46.681Z,99971.00
2023-05-06T04:05:50.079Z,99975.53
2023-05-06T04:10:55.518Z,99967.56
2023-05-06T04:16:03.067Z,99966.25
2023-05-06T04:21:14.787Z,99968.66
2023-05-06T04:26:20.886Z,99973.44
2023-05-06T04:31:23.579Z,99972.41
2023-05-06T04:36:26.430Z,99979.09
2023-05-06T04:41:49.706Z,99984.97
2023-05-06T04:46:57.096Z,99978.75
2023-05-06T04:52:01.621Z,99972.03
2023-05-06T04:57:04.159Z,99973.47
2023-05-06T05:02:07.509Z,99976.81
2023-05-06T05:07:09.618Z,99975.25
2023-05-06T05:12:11.550Z,99975.88
2023-05-06T05:17:17.203Z,99993.75
2023-05-06T05:22:20.939Z,100003.16
2023-05-06T05:27:23.403Z,100001.59
2023-05-06T05:32:26.606Z,100003.63
2023-05-06T05:37:28.501Z,100014.38
2023-05-06T05:42:33.732Z,100011.59
2023-05-06T05:47:40.204Z,100013.69
2023-05-06T05:52:43.449Z,100006.69
2023-05-06T05:57:45.915Z,100004.25
2023-05-06T06:02:48.209Z,100010.44
2023-05-06T06:07:54.643Z,100005.72
2023-05-06T06:12:58.338Z,100010.19
2023-05-06T06:18:06.506Z,100009.63
2023-05-06T06:23:08.416Z,100018.63
2023-05-06T06:28:10.640Z,100015.00
2023-05-06T06:33:13.622Z,100022.00
2023-05-06T06:38:15.620Z,100022.69
2023-05-06T06:43:19.854Z,100023.84
2023-05-06T06:48:44.490Z,100017.44
2023-05-06T06:53:48.370Z,100026.28
2023-05-06T06:58:52.424Z,100023.47
2023-05-06T07:03:54.990Z,100024.06
2023-05-06T07:08:56.872Z,100030.53
2023-05-06T07:13:58.658Z,100022.09
2023-05-06T07:19:01.446Z,100019.00
2023-05-06T07:24:03.496Z,100012.22
2023-05-06T07:29:05.336Z,100019.09
2023-05-06T07:34:07.928Z,100021.78
2023-05-06T07:39:10.919Z,100011.31
2023-05-06T07:44:12.798Z,100011.94
2023-05-06T07:49:14.561Z,100013.06
2023-05-06T07:54:16.370Z,100013.16
2023-05-06T07:59:18.129Z,100019.78
2023-05-06T08:04:19.951Z,100018.03
2023-05-06T08:09:23.171Z,100018.31
2023-05-06T08:14:28.832Z,100015.72
2023-05-06T08:19:30.902Z,100018.38
2023-05-06T08:24:32.673Z,100024.09
2023-05-06T08:29:34.398Z,100019.28
2023-05-06T08:34:36.279Z,100018.44
2023-05-06T08:39:38.077Z,100016.44
2023-05-06T08:44:39.955Z,100009.59
2023-05-06T08:49:41.755Z,100007.25
2023-05-06T08:54:45.172Z,100009.91
2023-05-06T08:59:47.817Z,100003.03
2023-05-06T09:04:50.211Z,99993.44
2023-05-06T09:09:52.676Z,99994.44
2023-05-06T09:14:56.007Z,99992.34
2023-05-06T09:19:57.750Z,99987.63
2023-05-06T09:25:00.164Z,99986.28
2023-05-06T09:30:06.687Z,99978.75
2023-05-06T09:35:09.977Z,99978.75
2023-05-06T09:40:12.440Z,99970.47
2023-05-06T09:45:16.280Z,99977.97
2023-05-06T09:50:18.126Z,99973.47
2023-05-06T09:55:21.271Z,99980.38
2023-05-06T10:00:28.229Z,99956.31
2023-05-06T10:05:32.139Z,99959.53
2023-05-06T10:10:41.236Z,99954.47
2023-05-06T10:15:46.440Z,99944.31
2023-05-06T10:20:49.492Z,99939.84
2023-05-06T10:25:55.776Z,99936.44
2023-05-06T10:30:59.068Z,99937.66
2023-05-06T10:36:15.673Z,99922.44
2023-05-06T10:41:18.301Z,99920.84
2023-05-06T10:46:20.065Z,99920.78
2023-05-06T10:51:27.277Z,99915.09
2023-05-06T10:56:31.018Z,99909.56
2023-05-06T11:01:32.837Z,99910.00
2023-05-06T11:06:36.772Z,99911.41
2023-05-06T11:12:02.187Z,99911.31
2023-05-06T11:17:09.942Z,99896.59
2023-05-06T11:22:41.109Z,99897.38
2023-05-06T11:27:42.962Z,99892.31
2023-05-06T11:32:46.716Z,99886.69
2023-05-06T11:37:48.652Z,99878.75
2023-05-06T11:42:50.504Z,99879.22
2023-05-06T11:47:54.876Z,99874.81
2023-05-06T11:52:57.986Z,99869.59
2023-05-06T11:57:59.702Z,99868.38
2023-05-06T12:03:02.426Z,99872.16
2023-05-06T12:08:08.376Z,99866.66
2023-05-06T12:13:16.281Z,99868.53
2023-05-06T12:18:18.378Z,99866.25
2023-05-06T12:23:22.016Z,99869.59
2023-05-06T12:28:23.851Z,99858.97
2023-05-06T12:33:25.600Z,99858.81
2023-05-06T12:38:27.367Z,99858.66
2023-05-06T12:43:30.797Z,99851.81
2023-05-06T12:48:32.757Z,99843.06
2023-05-06T12:53:35.625Z,99841.19
2023-05-06T12:58:38.138Z,99840.56
2023-05-06T13:03:41.180Z,99838.81
2023-05-06T13:08:43.853Z,99843.81
2023-05-06T13:13:45.636Z,99840.59
2023-05-06T13:18:47.385Z,99845.03
2023-05-06T13:23:49.492Z,99835.31
2023-05-06T13:28:51.635Z,99827.50
2023-05-06T13:33:53.382Z,99825.06
2023-05-06T13:38:55.821Z,99819.50
2023-05-06T13:43:57.629Z,99823.75
2023-05-06T13:48:59.454Z,99822.72
2023-05-06T13:54:02.023Z,99814.72
2023-05-06T13:59:04.360Z,99819.78
2023-05-06T14:04:06.122Z,99813.78
2023-05-06T14:09:08.205Z,99813.28
2023-05-06T14:14:10.094Z,99822.28
2023-05-06T14:19:11.845Z,99809.81
2023-05-06T14:24:13.612Z,99808.97
2023-05-06T14:29:15.410Z,99805.78
2023-05-06T14:34:17.363Z,99809.66
2023-05-06T14:39:19.176Z,99801.75
2023-05-06T14:44:21.691Z,99799.31
2023-05-06T14:49:23.430Z,99792.88
2023-05-06T14:54:26.901Z,99792.41
2023-05-06T14:59:28.716Z,99794.25
2023-05-06T15:04:31.023Z,99796.22
2023-05-06T15:09:32.751Z,99802.84
2023-05-06T15:14:34.658Z,99795.00
2023-05-06T15:19:36.379Z,99804.19
2023-05-06T15:24:38.096Z,99821.94
2023-05-06T15:29:39.854Z,99832.22
2023-05-06T15:34:41.671Z,99842.16
2023-05-06T15:39:43.461Z,99853.06
2023-05-06T15:44:48.812Z,99856.25
2023-05-06T15:49:54.787Z,99864.19
2023-05-06T15:54:59.495Z,99862.53
2023-05-06T16:00:02.119Z,99861.25
2023-05-06T16:05:07.549Z,99860.97
2023-05-06T16:10:09.539Z,99850.41
2023-05-06T16:15:11.533Z,99856.81
2023-05-06T16:20:13.808Z,99862.78
2023-05-06T16:25:16.236Z,99869.13
2023-05-06T16:30:18.030Z,99869.16
2023-05-06T16:35:19.782Z,99872.00
2023-05-06T16:40:21.996Z,99866.38
2023-05-06T16:45:23.812Z,99868.34
2023-05-06T16:50:25.584Z,99885.25
2023-05-06T16:55:27.390Z,99876.41
2023-05-06T17:00:29.223Z,99868.50
2023-05-06T17:05:31.160Z,99873.03
2023-05-06T17:10:32.890Z,99876.53
2023-05-06T17:15:34.650Z,99873.47
2023-05-06T17:20:51.589Z,99872.78
2023-05-06T17:25:57.207Z,99877.81
2023-05-06T17:30:58.984Z,99876.13
2023-05-06T17:36:00.825Z,99880.84
2023-05-06T17:41:02.655Z,99887.38
2023-05-06T17:46:04.880Z,99884.19
2023-05-06T17:51:06.859Z,99866.38
2023-05-06T17:56:08.674Z,99875.84
2023-05-06T18:01:12.179Z,99876.25
2023-05-06T18:06:20.783Z,99872.50
2023-05-06T18:11:25.391Z,99876.50
2023-05-06T18:16:27.628Z,99878.19
2023-05-06T18:21:29.546Z,99885.75
2023-05-06T18:26:43.887Z,99871.97
2023-05-06T18:31:47.076Z,99883.19
2023-05-06T18:36:48.911Z,99892.59
2023-05-06T18:41:50.645Z,99888.25
2023-05-06T18:46:52.421Z,99901.06
2023-05-06T18:51:54.895Z,99900.75
2023-05-06T18:56:57.878Z,99898.06
2023-05-06T19:02:01.925Z,99902.97
2023-05-06T19:07:04.926Z,99915.09
2023-05-06T19:12:06.808Z,99912.72
2023-05-06T19:17:08.771Z,99906.03
2023-05-06T19:22:10.519Z,99899.91
2023-05-06T19:27:12.892Z,99903.47
2023-05-06T19:32:14.645Z,99911.19
2023-05-06T19:37:16.520Z,99907.78
2023-05-06T19:42:18.408Z,99911.69
2023-05-06T19:47:21.696Z,99912.47
2023-05-06T19:52:27.020Z,99914.47
2023-05-06T19:57:29.266Z,99909.59
2023-05-06T20:02:32.662Z,99923.34
2023-05-06T20:07:35.432Z,99915.31
2023-05-06T20:12:37.382Z,99916.13
2023-05-06T20:17:39.461Z,99907.38
2023-05-06T20:22:41.834Z,99908.63
2023-05-06T20:27:45.286Z,99904.56
2023-05-06T20:32:48.614Z,99909.38
2023-05-06T20:37:52.151Z,99909.13
2023-05-06T20:42:54.335Z,99920.50
2023-05-06T20:47:56.633Z,99919.69
2023-05-06T20:52:59.161Z,99919.94
2023-05-06T20:58:00.913Z,99919.69
2023-05-06T21:03:02.767Z,99924.97
2023-05-06T21:08:04.718Z,99918.81
2023-05-06T21:13:06.979Z,99926.63
2023-05-06T21:18:09.113Z,99923.63
2023-05-06T21:23:11.071Z,99927.69
2023-05-06T21:28:13.740Z,99931.13
2023-05-06T21:33:15.538Z,99927.97
2023-05-06T21:38:17.261Z,99936.72
2023-05-06T21:43:19.120Z,99929.03
2023-05-06T21:48:20.857Z,99926.84
2023-05-06T21:53:22.583Z,99929.41
2023-05-06T21:58:24.346Z,99926.19
2023-05-06T22:03:27.630Z,99924.00
2023-05-06T22:08:30.045Z,99917.03
2023-05-06T22:13:32.007Z,99922.28
2023-05-06T22:18:36.036Z,99928.03
2023-05-06T22:23:40.488Z,99922.97
2023-05-06T22:28:44.265Z,99922.59
2023-05-06T22:33:47.656Z,99919.25
2023-05-06T22:38:50.085Z,99923.84
2023-05-06T22:43:52.250Z,99921.13
2023-05-06T22:48:54.201Z,99924.78
2023-05-06T22:53:58.544Z,99923.22
2023-05-06T22:59:00.275Z,99912.47
2023-05-06T23:04:02.092Z,99904.47
2023-05-06T23:09:06.725Z,99908.38
2023-05-06T23:14:08.498Z,99906.47
2023-05-06T23:19:10.223Z,99915.34
2023-05-06T23:24:12.124Z,99911.00
2023-05-06T23:29:13.883Z,99913.81
2023-05-06T23:34:15.601Z,99911.41
2023-05-06T23:39:20.411Z,99911.00
2023-05-06T23:44:22.888Z,99913.78
2023-05-06T23:49:25.124Z,99912.81
2023-05-06T23:54:27.031Z,99918.72
2023-05-06T23:59:37.768Z,99907.56
